createdAt,value
2023-05-17T00:03:08.265Z,33.31872
2023-05-17T00:08:09.895Z,32.65023
2023-05-17T00:13:11.332Z,31.98655
2023-05-17T00:18:12.771Z,33.1278
2023-05-17T00:23:14.373Z,32.46539
2023-05-17T00:28:15.790Z,34.53697
2023-05-17T00:33:17.311Z,34.02313
2023-05-17T00:38:18.716Z,34.6298
2023-05-17T00:43:20.140Z,34.97479
2023-05-17T00:48:21.693Z,33.89893
2023-05-17T00:53:23.238Z,35.09403
2023-05-17T00:58:24.638Z,35.25405
2023-05-17T01:03:26.121Z,35.73411
2023-05-17T01:08:27.773Z,36.03619
2023-05-17T01:13:29.188Z,35.60774
2023-05-17T01:18:30.670Z,36.43694
2023-05-17T01:23:32.052Z,37.36996
2023-05-17T01:28:33.497Z,37.11229
2023-05-17T01:33:35.059Z,37.30558
2023-05-17T01:38:36.772Z,37.705
2023-05-17T01:43:38.146Z,38.6743
2023-05-17T01:48:39.548Z,38.91566
2023-05-17T01:53:40.959Z,40.43275
2023-05-17T01:58:42.364Z,41.05233
2023-05-17T02:03:43.898Z,41.90465
2023-05-17T02:08:45.422Z,41.38513
2023-05-17T02:13:46.934Z,42.14963
2023-05-17T02:18:48.398Z,42.06782
2023-05-17T02:23:49.877Z,42.55795
2023-05-17T02:28:51.349Z,42.66966
2023-05-17T02:33:52.868Z,42.06797
2023-05-17T02:38:54.411Z,41.71772
2023-05-17T02:43:55.887Z,42.38823
2023-05-17T02:48:57.260Z,44.46481
2023-05-17T02:53:58.666Z,43.61693
2023-05-17T02:59:00.077Z,42.91804
2023-05-17T03:04:01.718Z,42.45222
2023-05-17T03:09:03.316Z,43.24343
2023-05-17T03:14:04.742Z,43.56938
2023-05-17T03:19:06.250Z,46.21166
2023-05-17T03:24:07.897Z,45.93128
2023-05-17T03:29:09.304Z,47.72087
2023-05-17T03:34:10.723Z,47.19529
2023-05-17T03:39:12.119Z,50.11751
2023-05-17T03:44:13.500Z,50.33039
2023-05-17T03:49:14.916Z,50.28781
2023-05-17T03:54:16.495Z,53.56775
2023-05-17T03:59:17.851Z,50.35846
2023-05-17T04:04:19.428Z,51.44449
2023-05-17T04:09:20.884Z,61.15274
2023-05-17T04:14:22.302Z,56.09507
2023-05-17T04:19:23.740Z,57.91614
2023-05-17T04:24:25.369Z,58.42586
2023-05-17T04:29:26.769Z,58.48369
2023-05-17T04:34:28.166Z,56.97616
2023-05-17T04:39:30.923Z,58.4637
2023-05-17T04:44:32.442Z,56.00483
2023-05-17T04:49:33.956Z,56.20676
2023-05-17T04:54:35.375Z,57.5062
2023-05-17T04:59:36.820Z,56.78785
2023-05-17T05:04:38.366Z,57.26336
2023-05-17T05:09:39.784Z,57.93931
2023-05-17T05:14:41.197Z,55.70105
2023-05-17T05:19:42.602Z,61.60048
2023-05-17T05:24:44.045Z,56.15993
2023-05-17T05:29:45.463Z,62.89215
2023-05-17T05:34:46.855Z,62.98076
2023-05-17T05:39:48.244Z,62.32954
2023-05-17T05:44:49.709Z,61.81372
2023-05-17T05:49:51.141Z,61.99568
2023-05-17T05:54:52.542Z,65.5738
2023-05-17T05:59:54.186Z,62.69099
2023-05-17T06:04:55.642Z,64.6602
2023-05-17T06:09:57.104Z,60.77981
2023-05-17T06:14:58.498Z,69.01989
2023-05-17T06:19:59.961Z,66.84564
2023-05-17T06:25:01.396Z,68.19201
2023-05-17T06:30:05.556Z,64.801
2023-05-17T06:35:08.525Z,65.50754
2023-05-17T06:40:16.079Z,68.28174
2023-05-17T06:45:18.402Z,68.7159
2023-05-17T06:50:19.806Z,84.32659
2023-05-17T06:55:21.241Z,73.03698
2023-05-17T07:00:22.607Z,64.40051
2023-05-17T07:05:24.155Z,69.98608
2023-05-17T07:10:26.743Z,71.05801
2023-05-17T07:15:28.494Z,70.49614
2023-05-17T07:20:30.124Z,71.2581
2023-05-17T07:25:31.551Z,72.77129
2023-05-17T07:30:32.991Z,69.74132
2023-05-17T07:35:34.485Z,78.50965
2023-05-17T07:40:35.889Z,77.74203
2023-05-17T07:45:37.318Z,74.27295
2023-05-17T07:50:38.718Z,80.06832
2023-05-17T07:55:40.083Z,75.06857
2023-05-17T08:00:41.507Z,74.93084
2023-05-17T08:05:42.945Z,82.55138
2023-05-17T08:10:45.161Z,88.30792
2023-05-17T08:15:46.568Z,72.55498
2023-05-17T08:20:48.096Z,81.06846
2023-05-17T08:25:49.493Z,82.05431
2023-05-17T08:30:50.850Z,89.30452
2023-05-17T08:35:52.418Z,91.14427
2023-05-17T08:40:53.833Z,91.3337
2023-05-17T08:45:55.238Z,92.29427
2023-05-17T08:50:56.743Z,90.14966
2023-05-17T08:55:58.168Z,100
2023-05-17T09:00:59.562Z,100
2023-05-17T09:06:01.369Z,98.53148
2023-05-17T09:11:02.874Z,100
2023-05-17T09:16:04.295Z,100
2023-05-17T09:21:05.685Z,89.21195
2023-05-17T09:26:07.081Z,94.45278
2023-05-17T09:31:08.598Z,90.10266
2023-05-17T09:36:09.974Z,93.17357
2023-05-17T09:41:11.506Z,100
2023-05-17T09:46:12.940Z,88.91119
2023-05-17T09:51:14.327Z,94.74787
2023-05-17T09:56:15.686Z,99.41521
2023-05-17T10:01:17.289Z,94.8279
2023-05-17T10:06:32.815Z,90.43293
2023-05-17T10:11:45.456Z,91.51678
2023-05-17T10:16:46.882Z,97.26401
2023-05-17T10:21:48.230Z,98.08713
2023-05-17T10:26:49.654Z,98.10615
2023-05-17T10:31:51.050Z,100
2023-05-17T10:36:52.517Z,100
2023-05-17T10:42:00.443Z,100
2023-05-17T10:47:08.539Z,100
2023-05-17T10:52:09.931Z,100
2023-05-17T10:57:11.366Z,100
2023-05-17T11:02:12.884Z,100
2023-05-17T11:07:14.659Z,100
2023-05-17T11:12:16.057Z,100
2023-05-17T11:17:17.426Z,100
2023-05-17T11:22:18.851Z,100
2023-05-17T11:27:20.294Z,100
2023-05-17T11:32:21.695Z,100
2023-05-17T11:37:23.109Z,100
2023-05-17T11:42:24.524Z,100
2023-05-17T11:47:26.051Z,100
2023-05-17T11:52:29.170Z,100
2023-05-17T11:57:30.731Z,100
2023-05-17T12:02:32.213Z,100
2023-05-17T12:07:33.791Z,100
2023-05-17T12:12:35.198Z,100
2023-05-17T12:17:36.722Z,100
2023-05-17T12:22:38.144Z,100
2023-05-17T12:27:39.639Z,100
2023-05-17T12:32:41.153Z,100
2023-05-17T12:37:42.604Z,100
2023-05-17T12:42:43.995Z,100
2023-05-17T12:47:45.380Z,100
2023-05-17T12:52:46.902Z,100
2023-05-17T12:57:48.312Z,100
2023-05-17T13:02:49.736Z,100
2023-05-17T13:07:51.192Z,100
2023-05-17T13:12:52.615Z,100
2023-05-17T13:17:54.114Z,100
2023-05-17T13:22:55.513Z,100
2023-05-17T13:27:56.987Z,100
2023-05-17T13:32:58.523Z,100
2023-05-17T13:38:00.067Z,100
2023-05-17T13:43:01.956Z,100
2023-05-17T13:48:03.457Z,100
2023-05-17T13:53:04.942Z,100
2023-05-17T13:58:06.347Z,100
2023-05-17T14:03:07.882Z,100
2023-05-17T14:08:09.440Z,100
2023-05-17T14:13:10.831Z,100
2023-05-17T14:18:12.377Z,100
2023-05-17T14:23:13.865Z,100
2023-05-17T14:28:15.330Z,100
2023-05-17T14:33:16.800Z,100
2023-05-17T14:38:18.341Z,100
2023-05-17T14:43:19.748Z,100
2023-05-17T14:48:21.248Z,100
2023-05-17T14:53:22.707Z,100
2023-05-17T14:58:24.110Z,100
2023-05-17T15:03:25.619Z,100
2023-05-17T15:08:27.046Z,100
2023-05-17T15:13:28.471Z,100
2023-05-17T15:18:29.880Z,100
2023-05-17T15:23:31.275Z,100
2023-05-17T15:28:32.707Z,100
2023-05-17T15:33:34.176Z,100
2023-05-17T15:38:35.724Z,100
2023-05-17T15:43:37.352Z,100
2023-05-17T15:48:38.840Z,100
2023-05-17T15:53:40.327Z,100
2023-05-17T15:58:41.749Z,100
2023-05-17T16:03:43.240Z,100
2023-05-17T16:08:44.690Z,100
2023-05-17T16:13:46.072Z,100
2023-05-17T16:18:47.697Z,100
2023-05-17T16:23:49.180Z,100
2023-05-17T16:28:50.609Z,100
2023-05-17T16:33:52.067Z,100
2023-05-17T16:38:53.472Z,100
2023-05-17T16:43:54.885Z,100
2023-05-17T16:48:56.311Z,100
2023-05-17T16:53:57.724Z,100
2023-05-17T16:58:59.075Z,100
2023-05-17T17:04:00.566Z,100
2023-05-17T17:09:02.052Z,100
2023-05-17T17:14:03.517Z,100
2023-05-17T17:19:05.088Z,100
2023-05-17T17:24:06.577Z,100
2023-05-17T17:29:08.032Z,100
2023-05-17T17:34:09.433Z,99.07908
2023-05-17T17:39:10.900Z,100
2023-05-17T17:44:12.254Z,96.00875
2023-05-17T17:49:13.738Z,90.69022
2023-05-17T17:54:15.226Z,93.23206
2023-05-17T17:59:16.645Z,91.76196
2023-05-17T18:04:18.050Z,91.31333
2023-05-17T18:09:19.625Z,93.61824
2023-05-17T18:14:20.981Z,89.94002
2023-05-17T18:19:22.394Z,82.45754
2023-05-17T18:24:23.836Z,78.44381
2023-05-17T18:29:25.213Z,70.6405
2023-05-17T18:34:26.727Z,72.00288
2023-05-17T18:39:28.138Z,71.36171
2023-05-17T18:44:29.562Z,62.42323
2023-05-17T18:49:31.128Z,58.58343
2023-05-17T18:54:32.507Z,60.74704
2023-05-17T18:59:33.923Z,52.35484
2023-05-17T19:04:35.347Z,51.18497
2023-05-17T19:09:36.839Z,51.96393
2023-05-17T19:14:38.232Z,51.59189
2023-05-17T19:19:39.719Z,50.6424
2023-05-17T19:24:41.126Z,51.23559
2023-05-17T19:29:42.581Z,52.71253
2023-05-17T19:34:44.002Z,50.96439
2023-05-17T19:39:45.412Z,49.71523
2023-05-17T19:44:46.853Z,47.19476
2023-05-17T19:49:48.409Z,45.01096
2023-05-17T19:54:49.812Z,44.69158
2023-05-17T19:59:52.303Z,43.60187
2023-05-17T20:04:53.861Z,39.68055
2023-05-17T20:09:55.274Z,38.60583
2023-05-17T20:14:56.641Z,37.82396
2023-05-17T20:19:58.173Z,38.29917
2023-05-17T20:24:59.570Z,35.03716
2023-05-17T20:30:00.972Z,38.02329
2023-05-17T20:35:02.476Z,37.11605
2023-05-17T20:40:03.896Z,36.95959
2023-05-17T20:45:05.323Z,34.23645
2023-05-17T20:50:06.822Z,34.3724
2023-05-17T20:55:08.249Z,34.50619
2023-05-17T21:00:09.647Z,34.78538
2023-05-17T21:05:11.098Z,30.57966
2023-05-17T21:10:12.524Z,31.49008
2023-05-17T21:15:17.034Z,32.2429
2023-05-17T21:20:19.422Z,33.77567
2023-05-17T21:25:21.819Z,27.7874
2023-05-17T21:30:23.315Z,31.32492
2023-05-17T21:35:24.721Z,28.89085
2023-05-17T21:40:26.139Z,29.03962
2023-05-17T21:45:27.550Z,28.98687
2023-05-17T21:50:29.101Z,27.90384
2023-05-17T21:55:36.402Z,27.83459
2023-05-17T22:00:42.611Z,27.50331
2023-05-17T22:05:44.099Z,27.66826
2023-05-17T22:10:45.486Z,29.72929
2023-05-17T22:15:47.067Z,30.92449
2023-05-17T22:20:48.594Z,27.15534
2023-05-17T22:25:50.004Z,27.20619
2023-05-17T22:30:51.448Z,28.18397
2023-05-17T22:35:53.600Z,30.07808
2023-05-17T22:40:55.396Z,30.03164
2023-05-17T22:45:56.785Z,26.79247
2023-05-17T22:50:58.269Z,25.25066
2023-05-17T22:55:59.702Z,26.00025
2023-05-17T23:01:01.258Z,25.49373
2023-05-17T23:06:03.071Z,25.67004
2023-05-17T23:11:04.648Z,26.98271
2023-05-17T23:16:06.111Z,24.33021
2023-05-17T23:21:07.540Z,27.34191
2023-05-17T23:26:08.944Z,28.08153
2023-05-17T23:31:10.380Z,26.20267
2023-05-17T23:36:11.809Z,26.19736
2023-05-17T23:41:13.256Z,26.47605
2023-05-17T23:46:14.676Z,25.79538
2023-05-17T23:51:16.116Z,26.88776
2023-05-17T23:56:17.450Z,26.44657
